Time;durP1;ratioP1;P1;durP2;ratioP2;P2;SDS_P1;SDS_P2;PMS_P1;PMS_P2;Temp;Humidity;BMP_temperature;BMP_pressure;BME280_temperature;BME280_humidity;BME280_pressure;Samples;Min_cycle;Max_cycle;Signal;HPM_P1;HPM_P2
2023/06/21 00:01:41;;;;;;;24.90;22.23;;;;;;;-146.58;100.00;69501.63;5030984;28;20059;-63
2023/06/21 00:04:07;;;;;;;26.65;23.95;;;;;;;-146.58;100.00;69501.63;5028778;28;20045;-64
2023/06/21 00:06:34;;;;;;;25.45;22.25;;;;;;;-146.58;100.00;69501.63;5030772;28;20025;-65
2023/06/21 00:09:03;;;;;;;23.70;21.25;;;;;;;-146.58;100.00;69501.63;5029023;28;20052;-63
2023/06/21 00:11:29;;;;;;;29.23;23.52;;;;;;;-146.58;100.00;69501.63;5030378;28;20025;-64
2023/06/21 00:13:55;;;;;;;31.35;23.05;;;;;;;-146.58;100.00;69501.63;5029239;28;20038;-65
2023/06/21 00:16:21;;;;;;;26.30;23.13;;;;;;;-146.58;100.00;69501.63;5030487;28;20464;-65
2023/06/21 00:18:47;;;;;;;27.48;23.35;;;;;;;-146.58;100.00;69501.63;5028688;28;20045;-65
2023/06/21 00:21:13;;;;;;;27.80;24.50;;;;;;;-146.58;100.00;69501.63;5030499;28;20030;-65
2023/06/21 00:23:39;;;;;;;30.95;26.33;;;;;;;-146.58;100.00;69501.63;5029181;28;20069;-65
2023/06/21 00:26:04;;;;;;;26.58;23.75;;;;;;;-146.58;100.00;69501.63;5030017;28;20072;-65
2023/06/21 00:28:30;;;;;;;32.58;26.40;;;;;;;-146.58;100.00;69501.63;5029111;28;20111;-66
2023/06/21 00:30:55;;;;;;;31.23;27.33;;;;;;;-146.58;100.00;69501.63;5030261;28;20034;-66
2023/06/21 00:33:21;;;;;;;36.90;29.40;;;;;;;-146.58;100.00;69501.63;5028641;28;20049;-66
2023/06/21 00:35:46;;;;;;;35.55;28.52;;;;;;;-146.58;100.00;69501.63;5030366;28;20554;-66
2023/06/21 00:38:12;;;;;;;33.10;28.20;;;;;;;-146.58;100.00;69501.63;5029247;28;20040;-67
2023/06/21 00:40:38;;;;;;;36.58;30.77;;;;;;;-146.58;100.00;69501.63;5030191;28;20499;-66
2023/06/21 00:43:04;;;;;;;31.40;27.45;;;;;;;-146.58;100.00;69501.63;5028714;28;20432;-66
2023/06/21 00:45:33;;;;;;;34.47;28.25;;;;;;;-146.58;100.00;69501.63;5030499;28;20024;-67
2023/06/21 00:47:58;;;;;;;31.00;26.05;;;;;;;-146.58;100.00;69501.63;5028064;28;20472;-65
2023/06/21 00:50:25;;;;;;;37.53;28.27;;;;;;;-146.58;100.00;69501.63;5030403;28;20026;-66
2023/06/21 00:52:50;;;;;;;33.42;26.73;;;;;;;-146.58;100.00;69501.63;5030214;28;20021;-67
2023/06/21 00:55:19;;;;;;;37.03;29.17;;;;;;;-146.58;100.00;69501.63;5028524;28;20060;-65
2023/06/21 00:57:44;;;;;;;;;;;;;;;-146.58;100.00;69501.63;5030811;28;20091;-65
2023/06/21 01:00:16;;;;;;;35.15;27.52;;;;;;;-146.58;100.00;69501.63;5030173;28;20497;-66
2023/06/21 01:02:43;;;;;;;28.83;24.85;;;;;;;-146.58;100.00;69501.63;5033277;28;20037;-66
2023/06/21 01:05:08;;;;;;;29.27;25.13;;;;;;;-146.58;100.00;69501.63;5032562;28;20048;-66
2023/06/21 01:08:02;;;;;;;30.25;25.40;;;;;;;-146.58;100.00;69501.63;5033855;28;20037;-66
2023/06/21 01:11:05;;;;;;;30.70;25.58;;;;;;;-146.58;100.00;69501.63;5012498;28;20497;-66
2023/06/21 01:13:44;;;;;;;30.20;26.88;;;;;;;-146.58;100.00;69501.63;5012714;28;20081;-66
2023/06/21 01:16:14;;;;;;;32.53;25.08;;;;;;;-146.58;100.00;69501.63;5013582;28;20551;-66
2023/06/21 01:18:45;;;;;;;34.83;27.00;;;;;;;-146.58;100.00;69501.63;5012504;28;20046;-67
2023/06/21 01:21:16;;;;;;;30.55;27.02;;;;;;;-146.58;100.00;69501.63;5014186;28;20029;-66
2023/06/21 01:23:53;;;;;;;33.30;25.45;;;;;;;-146.58;100.00;69501.63;5012055;28;20121;-66
2023/06/21 01:26:34;;;;;;;36.17;25.98;;;;;;;-146.58;100.00;69501.63;5013952;28;20026;-66
2023/06/21 01:29:11;;;;;;;33.63;27.20;;;;;;;-146.58;100.00;69501.63;5012133;28;20404;-66
2023/06/21 01:31:39;;;;;;;31.20;27.63;;;;;;;-146.58;100.00;69501.63;5013404;28;20473;-66
2023/06/21 01:34:04;;;;;;;29.15;24.48;;;;;;;-146.58;100.00;69501.63;5011929;28;20034;-66
2023/06/21 01:36:30;;;;;;;31.25;27.00;;;;;;;-146.58;100.00;69501.63;5013730;28;20430;-63
2023/06/21 01:38:56;;;;;;;33.60;29.50;;;;;;;-146.58;100.00;69501.63;5011581;28;20073;-65
2023/06/21 01:41:28;;;;;;;37.67;27.33;;;;;;;-146.58;100.00;69501.63;5013770;28;20033;-64
2023/06/21 01:43:53;;;;;;;32.85;27.90;;;;;;;-146.58;100.00;69501.63;5011500;28;20124;-65
2023/06/21 01:46:22;;;;;;;31.42;26.75;;;;;;;-146.58;100.00;69501.63;5013124;28;20450;-65
2023/06/21 01:48:48;;;;;;;35.22;30.58;;;;;;;-146.58;100.00;69501.63;5011671;28;20125;-66
2023/06/21 01:51:16;;;;;;;44.63;29.67;;;;;;;-146.58;100.00;69501.63;5013397;28;20085;-65
2023/06/21 01:53:43;;;;;;;33.58;27.70;;;;;;;-146.58;100.00;69501.63;5011642;28;20045;-65
2023/06/21 01:56:13;;;;;;;37.53;28.20;;;;;;;-146.58;100.00;69501.63;5013188;28;20018;-65
2023/06/21 01:58:39;;;;;;;32.65;26.98;;;;;;;-146.58;100.00;69501.63;5012147;28;20057;-65
2023/06/21 02:01:07;;;;;;;36.55;30.58;;;;;;;-146.58;100.00;69501.63;5012593;28;20061;-66
2023/06/21 02:03:33;;;;;;;36.10;29.17;;;;;;;-146.58;100.00;69501.63;5011648;28;20124;-64
2023/06/21 02:06:03;;;;;;;35.47;29.40;;;;;;;-146.58;100.00;69501.63;5012592;28;20026;-65
2023/06/21 02:08:29;;;;;;;36.83;28.90;;;;;;;-146.58;100.00;69501.63;5011223;28;20068;-65
2023/06/21 02:10:54;;;;;;;33.35;28.45;;;;;;;-146.58;100.00;69501.63;5011241;28;20045;-65
2023/06/21 02:13:20;;;;;;;35.55;27.73;;;;;;;-146.58;100.00;69501.63;5011417;28;20045;-66
2023/06/21 02:15:46;;;;;;;65.50;30.17;;;;;;;-146.58;100.00;69501.63;5012229;28;20030;-67
2023/06/21 02:18:12;;;;;;;35.30;28.85;;;;;;;-146.58;100.00;69501.63;5011462;28;20021;-65
2023/06/21 02:20:38;;;;;;;33.08;28.65;;;;;;;-146.58;100.00;69501.63;5012933;28;20026;-64
2023/06/21 02:23:04;;;;;;;32.10;27.70;;;;;;;-146.58;100.00;69501.63;5010792;28;20022;-64
2023/06/21 02:25:30;;;;;;;32.60;28.90;;;;;;;-146.58;100.00;69501.63;5012740;28;20030;-66
2023/06/21 02:27:55;;;;;;;32.08;27.45;;;;;;;-146.58;100.00;69501.63;5012339;28;20032;-65
2023/06/21 02:30:21;;;;;;;32.70;28.40;;;;;;;-146.58;100.00;69501.63;5010907;28;20053;-65
2023/06/21 02:32:46;;;;;;;34.58;27.67;;;;;;;-146.58;100.00;69501.63;5012447;28;20045;-65
2023/06/21 02:35:12;;;;;;;36.72;30.33;;;;;;;-146.58;100.00;69501.63;5011068;28;20049;-64
2023/06/21 02:37:37;;;;;;;35.92;26.98;;;;;;;-146.58;100.00;69501.63;5012288;28;20029;-65
2023/06/21 02:40:13;;;;;;;35.70;30.65;;;;;;;-146.58;100.00;69501.63;5010685;28;20030;-64
2023/06/21 02:42:40;;;;;;;37.97;29.75;;;;;;;-146.58;100.00;69501.63;5012511;28;20078;-64
2023/06/21 02:45:09;;;;;;;37.40;31.00;;;;;;;-146.58;100.00;69501.63;5010390;28;20120;-64
2023/06/21 02:47:34;;;;;;;37.78;29.63;;;;;;;-146.58;100.00;69501.63;5012346;28;20044;-64
2023/06/21 02:50:00;;;;;;;38.45;30.17;;;;;;;-146.58;100.00;69501.63;5010667;28;20046;-64
2023/06/21 02:52:25;;;;;;;38.58;30.75;;;;;;;-146.58;100.00;69501.63;5012095;28;20038;-63
2023/06/21 02:54:53;;;;;;;40.03;31.38;;;;;;;-146.58;100.00;69501.63;5010590;28;20088;-65
2023/06/21 02:57:19;;;;;;;42.45;30.38;;;;;;;-146.58;100.00;69501.63;5012179;28;20037;-65
2023/06/21 02:59:45;;;;;;;33.25;29.27;;;;;;;-146.58;100.00;69501.63;5010035;28;20068;-65
2023/06/21 03:02:10;;;;;;;35.70;29.27;;;;;;;-146.58;100.00;69501.63;5012267;28;20026;-65
2023/06/21 03:04:35;;;;;;;37.80;28.88;;;;;;;-146.58;100.00;69501.63;5010608;28;20057;-66
2023/06/21 03:07:01;;;;;;;41.42;28.70;;;;;;;-146.58;100.00;69501.63;5011735;28;20037;-65
2023/06/21 03:09:27;;;;;;;32.78;27.40;;;;;;;-146.58;100.00;69501.63;5008807;28;20092;-65
2023/06/21 03:11:53;;;;;;;32.45;27.95;;;;;;;-146.58;100.00;69501.63;5011599;28;20113;-65
2023/06/21 03:14:18;;;;;;;33.42;26.63;;;;;;;-146.58;100.00;69501.63;5021477;28;20125;-65
2023/06/21 03:16:44;;;;;;;33.55;29.15;;;;;;;-146.58;100.00;69501.63;5031006;28;20017;-65
2023/06/21 03:19:10;;;;;;;40.58;31.05;;;;;;;-146.58;100.00;69501.63;5028818;28;20034;-65
2023/06/21 03:21:35;;;;;;;29.77;26.73;;;;;;;-146.58;100.00;69501.63;5031613;28;20495;-65
2023/06/21 03:24:01;;;;;;;34.88;30.67;;;;;;;-146.58;100.00;69501.63;5028622;28;20045;-65
2023/06/21 03:26:27;;;;;;;37.10;31.40;;;;;;;-146.58;100.00;69501.63;5031488;28;20033;-65
2023/06/21 03:28:54;;;;;;;69.70;33.22;;;;;;;-146.58;100.00;69501.63;5029671;28;20037;-66
2023/06/21 03:31:20;;;;;;;34.30;29.30;;;;;;;-146.58;100.00;69501.63;5031005;28;20366;-66
2023/06/21 03:33:45;;;;;;;36.38;30.45;;;;;;;-146.58;100.00;69501.63;5029513;28;20037;-66
2023/06/21 03:36:10;;;;;;;35.17;31.02;;;;;;;-146.58;100.00;69501.63;5031065;28;20388;-67
2023/06/21 03:38:36;;;;;;;34.75;31.05;;;;;;;-146.58;100.00;69501.63;5029549;28;20041;-66
2023/06/21 03:41:01;;;;;;;34.05;30.45;;;;;;;-146.58;100.00;69501.63;5029758;28;20092;-66
2023/06/21 03:43:26;;;;;;;38.88;32.45;;;;;;;-146.58;100.00;69501.63;5029782;28;20496;-66
2023/06/21 03:45:52;;;;;;;34.72;27.95;;;;;;;-146.58;100.00;69501.63;5030574;28;20030;-66
2023/06/21 03:48:17;;;;;;;33.28;29.45;;;;;;;-146.58;100.00;69501.63;5029057;28;20143;-65
2023/06/21 03:50:42;;;;;;;34.20;29.92;;;;;;;-146.58;100.00;69501.63;5030862;28;20026;-64
2023/06/21 03:53:08;;;;;;;35.10;31.35;;;;;;;-146.58;100.00;69501.63;5029244;28;20493;-63
2023/06/21 03:55:35;;;;;;;31.77;28.48;;;;;;;-146.58;100.00;69501.63;5030957;28;20021;-63
2023/06/21 03:58:00;;;;;;;34.35;30.70;;;;;;;-146.58;100.00;69501.63;5029145;28;20024;-63
2023/06/21 04:00:26;;;;;;;35.15;31.42;;;;;;;-146.58;100.00;69501.63;5030392;28;20032;-63
2023/06/21 04:02:51;;;;;;;33.30;29.63;;;;;;;-146.58;100.00;69501.63;5030508;28;20045;-63
2023/06/21 04:05:16;;;;;;;37.35;31.63;;;;;;;-146.58;100.00;69501.63;5028976;28;20119;-63
2023/06/21 04:07:42;;;;;;;36.92;31.83;;;;;;;-146.58;100.00;69501.63;5029676;28;20033;-63
2023/06/21 04:10:09;;;;;;;31.27;27.98;;;;;;;-146.58;100.00;69501.63;5028985;28;20038;-63
2023/06/21 04:12:35;;;;;;;33.15;29.63;;;;;;;-146.58;100.00;69501.63;5030740;28;20026;-63
2023/06/21 04:15:01;;;;;;;35.55;30.65;;;;;;;-146.58;100.00;69501.63;5028814;28;20120;-63
2023/06/21 04:17:27;;;;;;;34.00;30.42;;;;;;;-146.58;100.00;69501.63;5030834;28;20024;-63
2023/06/21 04:19:55;;;;;;;34.72;28.20;;;;;;;-146.58;100.00;69501.63;5028839;28;20048;-63
2023/06/21 04:22:21;;;;;;;33.17;29.60;;;;;;;-146.58;100.00;69501.63;5029395;28;20386;-65
2023/06/21 04:24:46;;;;;;;33.53;28.08;;;;;;;-146.58;100.00;69501.63;5028663;28;20038;-65
2023/06/21 04:27:12;;;;;;;40.58;31.90;;;;;;;-146.58;100.00;69501.63;5030634;28;20044;-65
2023/06/21 04:29:40;;;;;;;38.80;29.95;;;;;;;-146.58;100.00;69501.63;5027893;28;20037;-65
2023/06/21 04:32:06;;;;;;;36.35;31.98;;;;;;;-146.58;100.00;69501.63;5029957;28;20029;-65
2023/06/21 04:34:33;;;;;;;38.10;33.55;;;;;;;-146.58;100.00;69501.63;5031103;28;20045;-65
2023/06/21 04:36:58;;;;;;;36.65;32.10;;;;;;;-146.58;100.00;69501.63;5033883;28;20407;-65
2023/06/21 04:39:24;;;;;;;37.10;32.97;;;;;;;-146.58;100.00;69501.63;5033291;28;20041;-68
2023/06/21 04:41:52;;;;;;;43.28;35.50;;;;;;;-146.58;100.00;69501.63;5033899;28;20040;-68
2023/06/21 04:44:17;;;;;;;40.78;34.92;;;;;;;-146.58;100.00;69501.63;5032469;28;20497;-68
2023/06/21 04:46:44;;;;;;;48.78;38.45;;;;;;;-146.58;100.00;69501.63;5034228;28;20040;-68
2023/06/21 04:49:10;;;;;;;53.50;36.17;;;;;;;-146.58;100.00;69501.63;5032770;28;20041;-68
2023/06/21 04:51:35;;;;;;;42.40;32.22;;;;;;;-146.58;100.00;69501.63;5033961;28;20092;-70
2023/06/21 04:54:01;;;;;;;42.95;32.95;;;;;;;-146.58;100.00;69501.63;5032601;28;20042;-68
2023/06/21 04:56:27;;;;;;;39.83;33.33;;;;;;;-146.58;100.00;69501.63;5034171;28;20071;-67
2023/06/21 04:58:52;;;;;;;44.53;35.13;;;;;;;-146.58;100.00;69501.63;5032157;28;20049;-64
2023/06/21 05:01:18;;;;;;;35.78;31.98;;;;;;;-146.58;100.00;69501.63;5034261;28;20025;-64
2023/06/21 05:03:47;;;;;;;42.47;34.75;;;;;;;-146.58;100.00;69501.63;5032147;28;20057;-63
2023/06/21 05:06:13;;;;;;;37.38;33.33;;;;;;;-146.58;100.00;69501.63;5033696;28;20053;-63
2023/06/21 05:08:40;;;;;;;39.40;34.45;;;;;;;-146.58;100.00;69501.63;5032368;28;20052;-61
2023/06/21 05:11:06;;;;;;;41.80;35.07;;;;;;;-146.58;100.00;69501.63;5033738;28;20087;-62
2023/06/21 05:13:33;;;;;;;41.13;33.97;;;;;;;-146.58;100.00;69501.63;5032141;28;20064;-61
2023/06/21 05:15:58;;;;;;;40.25;35.25;;;;;;;-146.58;100.00;69501.63;5033787;28;20029;-61
2023/06/21 05:18:23;;;;;;;41.15;35.28;;;;;;;-146.58;100.00;69501.63;5032409;28;20091;-62
2023/06/21 05:20:49;;;;;;;39.10;33.30;;;;;;;-146.58;100.00;69501.63;5033207;28;20030;-62
2023/06/21 05:23:14;;;;;;;35.55;31.75;;;;;;;-146.58;100.00;69501.63;5032086;28;20075;-61
2023/06/21 05:25:39;;;;;;;41.50;32.83;;;;;;;-146.58;100.00;69501.63;5033651;28;20025;-62
2023/06/21 05:28:05;;;;;;;39.45;32.92;;;;;;;-146.58;100.00;69501.63;5031507;28;20017;-61
2023/06/21 05:30:30;;;;;;;37.83;30.35;;;;;;;-146.58;100.00;69501.63;5033774;28;20017;-61
2023/06/21 05:32:56;;;;;;;38.53;33.08;;;;;;;-146.58;100.00;69501.63;5033320;28;20021;-62
2023/06/21 05:35:21;;;;;;;37.00;33.03;;;;;;;-146.58;100.00;69501.63;5031706;28;20483;-61
2023/06/21 05:37:46;;;;;;;39.72;34.55;;;;;;;-146.58;100.00;69501.63;5033119;28;20116;-62
2023/06/21 05:40:12;;;;;;;33.88;30.30;;;;;;;-146.58;100.00;69501.63;5031875;28;20053;-61
2023/06/21 05:42:37;;;;;;;42.22;33.75;;;;;;;-146.58;100.00;69501.63;5033189;28;20025;-62
2023/06/21 05:45:05;;;;;;;38.42;31.52;;;;;;;-146.58;100.00;69501.63;5031325;28;20384;-62
2023/06/21 05:47:30;;;;;;;34.67;30.80;;;;;;;-146.58;100.00;69501.63;5032770;28;20079;-62
2023/06/21 05:49:55;;;;;;;36.40;30.80;;;;;;;-146.58;100.00;69501.63;5031281;28;20902;-62
2023/06/21 05:52:21;;;;;;;37.67;29.98;;;;;;;-146.58;100.00;69501.63;5033162;28;20021;-62
2023/06/21 05:54:46;;;;;;;36.33;30.38;;;;;;;-146.58;100.00;69501.63;5031382;28;20423;-60
2023/06/21 05:57:11;;;;;;;35.88;30.33;;;;;;;-146.58;100.00;69501.63;5033092;28;20033;-61
2023/06/21 05:59:37;;;;;;;34.00;30.42;;;;;;;-146.58;100.00;69501.63;5030889;28;20192;-61
2023/06/21 06:02:03;;;;;;;34.15;30.42;;;;;;;-146.58;100.00;69501.63;5031318;28;20404;-61
2023/06/21 06:04:28;;;;;;;33.63;30.02;;;;;;;-146.58;100.00;69501.63;5031149;28;20420;-61
2023/06/21 06:06:53;;;;;;;34.88;31.13;;;;;;;-146.58;100.00;69501.63;5032345;28;20037;-61
2023/06/21 06:09:19;;;;;;;39.05;33.72;;;;;;;-146.58;100.00;69501.63;5031140;28;20045;-61
2023/06/21 06:11:44;;;;;;;31.77;28.20;;;;;;;-146.58;100.00;69501.63;5032503;28;20029;-60
2023/06/21 06:14:12;;;;;;;32.15;28.75;;;;;;;-146.58;100.00;69501.63;5026497;28;20037;-61
2023/06/21 06:16:38;;;;;;;39.38;31.58;;;;;;;-146.58;100.00;69501.63;5030912;28;20029;-60
2023/06/21 06:19:04;;;;;;;33.05;29.85;;;;;;;-146.58;100.00;69501.63;5030941;28;20132;-61
2023/06/21 06:21:29;;;;;;;30.00;27.02;;;;;;;-146.58;100.00;69501.63;5032042;28;20434;-61
2023/06/21 06:23:54;;;;;;;31.17;27.75;;;;;;;-146.58;100.00;69501.63;5030710;28;20069;-61
2023/06/21 06:26:25;;;;;;;31.17;27.85;;;;;;;-146.58;100.00;69501.63;5032578;28;20064;-61
2023/06/21 06:28:51;;;;;;;30.23;27.00;;;;;;;-146.58;100.00;69501.63;5030196;28;20044;-60
2023/06/21 06:31:21;;;;;;;28.08;25.00;;;;;;;-146.58;100.00;69501.63;5032182;28;20097;-61
2023/06/21 06:33:47;;;;;;;28.33;25.40;;;;;;;-146.58;100.00;69501.63;5030706;28;20045;-61
2023/06/21 06:36:12;;;;;;;30.48;27.25;;;;;;;-146.58;100.00;69501.63;5032021;28;20484;-61
2023/06/21 06:38:38;;;;;;;28.05;25.17;;;;;;;-146.58;100.00;69501.63;5030727;28;20449;-61
2023/06/21 06:41:03;;;;;;;25.27;22.70;;;;;;;-146.58;100.00;69501.63;5030620;28;20083;-61
2023/06/21 06:43:28;;;;;;;28.23;25.05;;;;;;;-146.58;100.00;69501.63;5030204;28;20034;-61
2023/06/21 06:45:54;;;;;;;27.83;24.95;;;;;;;-146.58;100.00;69501.63;5031759;28;20018;-61
2023/06/21 06:48:19;;;;;;;28.98;26.08;;;;;;;-146.58;100.00;69501.63;5030449;28;20100;-61
2023/06/21 06:50:44;;;;;;;27.30;23.92;;;;;;;-146.58;100.00;69501.63;5031429;28;20021;-61
2023/06/21 06:53:10;;;;;;;28.13;25.17;;;;;;;-146.58;100.00;69501.63;5030376;28;20017;-61
2023/06/21 06:55:35;;;;;;;27.05;24.20;;;;;;;-146.58;100.00;69501.63;5032028;28;20028;-61
2023/06/21 06:58:01;;;;;;;25.42;22.73;;;;;;;-146.58;100.00;69501.63;5028834;28;20393;-62
2023/06/21 07:00:27;;;;;;;28.25;25.15;;;;;;;-146.58;100.00;69501.63;5032068;28;20436;-61
2023/06/21 07:02:56;;;;;;;28.45;25.58;;;;;;;-146.58;100.00;69501.63;5031333;28;20042;-61
2023/06/21 07:05:23;;;;;;;31.60;25.77;;;;;;;-146.58;100.00;69501.63;5029886;28;20041;-62
2023/06/21 07:07:48;;;;;;;26.67;23.90;;;;;;;-146.58;100.00;69501.63;5031357;28;20053;-62
2023/06/21 07:10:14;;;;;;;26.63;23.83;;;;;;;-146.58;100.00;69501.63;5030592;28;20061;-61
2023/06/21 07:12:39;;;;;;;29.17;23.05;;;;;;;-146.58;100.00;69501.63;5031427;28;20021;-61
2023/06/21 07:15:05;;;;;;;21.98;19.75;;;;;;;-146.58;100.00;69501.63;5029926;28;20064;-61
2023/06/21 07:17:30;;;;;;;23.65;19.90;;;;;;;-146.58;100.00;69501.63;5031643;28;20444;-61
2023/06/21 07:19:56;;;;;;;27.65;24.67;;;;;;;-146.58;100.00;69501.63;5029519;28;20103;-61
2023/06/21 07:22:21;;;;;;;26.73;23.20;;;;;;;-146.58;100.00;69501.63;5031656;28;20032;-61
2023/06/21 07:24:47;;;;;;;24.70;22.23;;;;;;;-146.58;100.00;69501.63;5029675;28;20095;-61
2023/06/21 07:27:12;;;;;;;40.33;23.40;;;;;;;-146.58;100.00;69501.63;5031167;28;20041;-61
2023/06/21 07:29:37;;;;;;;24.08;21.42;;;;;;;-146.58;100.00;69501.63;5029910;28;20457;-61
2023/06/21 07:32:03;;;;;;;22.55;20.25;;;;;;;-146.58;100.00;69501.63;5031294;28;20252;-61
2023/06/21 07:34:29;;;;;;;26.42;20.52;;;;;;;-146.58;100.00;69501.63;5029443;28;20052;-61
2023/06/21 07:36:55;;;;;;;23.35;20.98;;;;;;;-146.58;100.00;69501.63;5030970;28;20029;-61
2023/06/21 07:39:20;;;;;;;24.58;22.08;;;;;;;-146.58;100.00;69501.63;5029997;28;20420;-61
2023/06/21 07:41:46;;;;;;;22.27;19.92;;;;;;;-146.58;100.00;69501.63;5030717;28;20025;-61
2023/06/21 07:44:11;;;;;;;23.08;18.90;;;;;;;-146.58;100.00;69501.63;5029526;28;20038;-61
2023/06/21 07:46:36;;;;;;;20.50;17.38;;;;;;;-146.58;100.00;69501.63;5030926;28;20029;-61
2023/06/21 07:49:02;;;;;;;23.80;21.35;;;;;;;-146.58;100.00;69501.63;5028913;28;20575;-62
2023/06/21 07:51:27;;;;;;;27.42;21.20;;;;;;;-146.58;100.00;69501.63;5028219;28;20093;-61
2023/06/21 07:53:52;;;;;;;24.05;21.42;;;;;;;-146.58;100.00;69501.63;5029156;28;20515;-62
2023/06/21 07:56:18;;;;;;;21.90;18.90;;;;;;;-146.58;100.00;69501.63;5030565;28;20033;-61
2023/06/21 07:58:43;;;;;;;25.70;22.10;;;;;;;-146.58;100.00;69501.63;5028897;28;20044;-62
2023/06/21 08:01:09;;;;;;;22.65;20.23;;;;;;;-146.58;100.00;69501.63;5030918;28;20473;-61
2023/06/21 08:03:34;;;;;;;27.23;23.40;;;;;;;-146.58;100.00;69501.63;5028864;28;20041;-62
2023/06/21 08:06:00;;;;;;;24.33;21.77;;;;;;;-146.58;100.00;69501.63;5030539;28;20026;-61
2023/06/21 08:08:26;;;;;;;27.10;22.42;;;;;;;-146.58;100.00;69501.63;5028861;28;20033;-61
2023/06/21 08:10:52;;;;;;;28.23;23.80;;;;;;;-146.58;100.00;69501.63;5029938;28;20083;-61
2023/06/21 08:13:22;;;;;;;26.55;23.83;;;;;;;-146.58;100.00;69501.63;5029335;28;20116;-61
2023/06/21 08:15:47;;;;;;;26.73;24.08;;;;;;;-146.58;100.00;69501.63;5030493;28;20037;-62
2023/06/21 08:18:13;;;;;;;30.65;26.85;;;;;;;-146.58;100.00;69501.63;5028942;28;20036;-62
2023/06/21 08:20:40;;;;;;;28.40;25.35;;;;;;;-146.58;100.00;69501.63;5030834;28;20436;-62
2023/06/21 08:23:06;;;;;;;26.47;23.87;;;;;;;-146.58;100.00;69501.63;5029033;28;20021;-62
2023/06/21 08:25:31;;;;;;;30.65;27.40;;;;;;;-146.58;100.00;69501.63;5030293;28;20087;-62
2023/06/21 08:27:57;;;;;;;31.90;26.40;;;;;;;-146.58;100.00;69501.63;5028897;28;20384;-62
2023/06/21 08:30:22;;;;;;;29.02;26.00;;;;;;;-146.58;100.00;69501.63;5030239;28;20033;-61
2023/06/21 08:32:47;;;;;;;29.90;26.88;;;;;;;-146.58;100.00;69501.63;5030112;28;20025;-62
2023/06/21 08:35:13;;;;;;;27.70;24.90;;;;;;;-146.58;100.00;69501.63;5029271;28;20488;-61
2023/06/21 08:37:39;;;;;;;31.65;28.45;;;;;;;-146.58;100.00;69501.63;5030588;28;20108;-61
2023/06/21 08:40:07;;;;;;;31.45;28.15;;;;;;;-146.58;100.00;69501.63;5028712;28;20515;-62
2023/06/21 08:42:32;;;;;;;32.43;29.07;;;;;;;-146.58;100.00;69501.63;5030595;28;20049;-61
2023/06/21 08:44:57;;;;;;;33.22;30.13;;;;;;;-146.58;100.00;69501.63;5028368;28;20041;-61
2023/06/21 08:47:28;;;;;;;31.05;27.83;;;;;;;-146.58;100.00;69501.63;5029359;28;20109;-62
2023/06/21 08:49:57;;;;;;;31.55;28.02;;;;;;;-146.58;100.00;69501.63;5027613;28;20088;-62
2023/06/21 08:52:26;;;;;;;32.15;29.00;;;;;;;-146.58;100.00;69501.63;5012879;28;20033;-62
2023/06/21 08:55:03;;;;;;;31.35;27.65;;;;;;;-146.58;100.00;69501.63;5007304;28;20072;-61
2023/06/21 08:57:32;;;;;;;33.60;30.05;;;;;;;-146.58;100.00;69501.63;5009390;28;20030;-61
2023/06/21 09:00:01;;;;;;;31.27;28.05;;;;;;;-146.58;100.00;69501.63;5007625;28;20046;-61
2023/06/21 09:02:48;;;;;;;34.67;27.92;;;;;;;-146.58;100.00;69501.63;5009893;28;20025;-62
2023/06/21 09:05:25;;;;;;;25.00;22.48;;;;;;;-146.58;100.00;69501.63;5008992;28;20050;-62
2023/06/21 09:07:51;;;;;;;31.77;28.30;;;;;;;-146.58;100.00;69501.63;5010288;28;20033;-62
2023/06/21 09:10:20;;;;;;;27.25;24.52;;;;;;;-146.58;100.00;69501.63;5007439;28;20508;-61
2023/06/21 09:12:48;;;;;;;29.45;26.42;;;;;;;-146.58;100.00;69501.63;5010345;28;20029;-61
2023/06/21 09:15:14;;;;;;;29.52;26.58;;;;;;;-146.58;100.00;69501.63;5009150;28;20053;-62
2023/06/21 09:17:39;;;;;;;25.75;22.98;;;;;;;-146.58;100.00;69501.63;5010401;28;20026;-62
2023/06/21 09:20:06;;;;;;;25.35;22.77;;;;;;;-146.58;100.00;69501.63;5008757;28;20045;-62
2023/06/21 09:22:32;;;;;;;26.75;23.48;;;;;;;-146.58;100.00;69501.63;5013684;28;20509;-61
2023/06/21 09:24:58;;;;;;;27.25;24.48;;;;;;;-146.58;100.00;69501.63;5011972;28;20516;-62
2023/06/21 09:27:24;;;;;;;28.20;25.40;;;;;;;-146.58;100.00;69501.63;5013947;28;20032;-61
2023/06/21 09:29:49;;;;;;;30.90;27.60;;;;;;;-146.58;100.00;69501.63;5012094;28;20038;-61
2023/06/21 09:32:15;;;;;;;24.70;21.73;;;;;;;-146.58;100.00;69501.63;5013626;28;20061;-62
2023/06/21 09:34:40;;;;;;;25.45;21.95;;;;;;;-146.58;100.00;69501.63;5012282;28;20164;-62
2023/06/21 09:37:06;;;;;;;24.52;22.02;;;;;;;-146.58;100.00;69501.63;5013751;28;20384;-62
2023/06/21 09:39:31;;;;;;;22.48;20.25;;;;;;;-146.58;100.00;69501.63;5012002;28;20049;-61
2023/06/21 09:41:57;;;;;;;25.20;22.15;;;;;;;-146.58;100.00;69501.63;5013409;28;20030;-62
2023/06/21 09:44:23;;;;;;;23.83;21.58;;;;;;;-146.58;100.00;69501.63;5013176;28;20060;-61
2023/06/21 09:46:49;;;;;;;26.10;23.45;;;;;;;-146.58;100.00;69501.63;5032870;28;20574;-62
2023/06/21 09:49:16;;;;;;;26.17;21.67;;;;;;;-146.58;100.00;69501.63;5031762;28;20033;-62
2023/06/21 09:51:43;;;;;;;25.60;22.98;;;;;;;-146.58;100.00;69501.63;5033318;28;20025;-61
2023/06/21 09:54:08;;;;;;;23.67;21.27;;;;;;;-146.58;100.00;69501.63;5031645;28;20057;-62
2023/06/21 09:56:35;;;;;;;25.38;22.90;;;;;;;-146.58;100.00;69501.63;5033048;28;20025;-62
2023/06/21 09:59:02;;;;;;;24.27;21.70;;;;;;;-146.58;100.00;69501.63;5030170;28;20041;-62
2023/06/21 10:01:38;;;;;;;25.63;23.00;;;;;;;-146.58;100.00;69501.63;5032866;28;20029;-62
2023/06/21 10:04:09;;;;;;;24.98;22.67;;;;;;;-146.58;100.00;69501.63;5030838;28;20053;-62
2023/06/21 10:06:34;;;;;;;25.40;22.90;;;;;;;-146.58;100.00;69501.63;5033074;28;20014;-62
2023/06/21 10:09:00;;;;;;;25.52;22.77;;;;;;;-146.58;100.00;69501.63;5030534;28;20048;-62
2023/06/21 10:11:26;;;;;;;21.33;18.90;;;;;;;-146.58;100.00;69501.63;5032960;28;20018;-62
2023/06/21 10:13:53;;;;;;;24.10;21.90;;;;;;;-146.58;100.00;69501.63;5029684;28;20037;-62
2023/06/21 10:16:21;;;;;;;24.90;22.55;;;;;;;-146.58;100.00;69501.63;5014490;28;20037;-62
2023/06/21 10:18:47;;;;;;;24.17;21.88;;;;;;;-146.58;100.00;69501.63;5016654;28;20057;-62
2023/06/21 10:21:14;;;;;;;25.13;22.65;;;;;;;-146.58;100.00;69501.63;5032717;28;20171;-62
2023/06/21 10:23:42;;;;;;;24.05;21.92;;;;;;;-146.58;100.00;69501.63;5030510;28;20092;-62
2023/06/21 10:26:12;;;;;;;20.48;18.30;;;;;;;-146.58;100.00;69501.63;5032390;28;20022;-62
2023/06/21 10:28:39;;;;;;;19.25;17.52;;;;;;;-146.58;100.00;69501.63;5030951;28;20446;-62
2023/06/21 10:31:08;;;;;;;16.73;14.68;;;;;;;-146.58;100.00;69501.63;5031765;28;20082;-62
2023/06/21 10:33:35;;;;;;;15.95;14.57;;;;;;;-146.58;100.00;69501.63;5023385;28;20129;-62
2023/06/21 10:36:01;;;;;;;15.18;13.88;;;;;;;-146.58;100.00;69501.63;5030891;28;20619;-61
2023/06/21 10:38:46;;;;;;;19.23;17.15;;;;;;;-146.58;100.00;69501.63;5029702;28;20064;-61
2023/06/21 10:41:12;;;;;;;18.40;16.70;;;;;;;-146.58;100.00;69501.63;5032425;28;20496;-62
2023/06/21 10:43:40;;;;;;;16.25;14.63;;;;;;;-146.58;100.00;69501.63;5030063;28;20041;-61
2023/06/21 10:46:08;;;;;;;19.20;17.45;;;;;;;-146.58;100.00;69501.63;5031034;28;20029;-62
2023/06/21 10:48:33;;;;;;;20.27;18.27;;;;;;;-146.58;100.00;69501.63;5030612;28;20053;-63
2023/06/21 10:51:02;;;;;;;20.00;17.13;;;;;;;-146.58;100.00;69501.63;5031978;28;20037;-62
2023/06/21 10:53:32;;;;;;;18.45;16.60;;;;;;;-146.58;100.00;69501.63;5030321;28;20037;-62